sensor_id;sensor_type;location;lat;lon;timestamp;temperature;humidity
36424;DHT22;22458;45.328;9.514;2022-08-21T00:02:16;26.60;66.20
36424;DHT22;22458;45.328;9.514;2022-08-21T00:04:42;26.60;66.30
36424;DHT22;22458;45.328;9.514;2022-08-21T00:07:08;26.60;66.30
36424;DHT22;22458;45.328;9.514;2022-08-21T00:09:33;26.60;66.40
36424;DHT22;22458;45.328;9.514;2022-08-21T00:11:59;26.60;66.50
36424;DHT22;22458;45.328;9.514;2022-08-21T00:14:25;26.60;66.50
36424;DHT22;22458;45.328;9.514;2022-08-21T00:16:51;26.60;66.50
36424;DHT22;22458;45.328;9.514;2022-08-21T00:19:16;26.50;66.40
36424;DHT22;22458;45.328;9.514;2022-08-21T00:21:42;26.50;66.50
36424;DHT22;22458;45.328;9.514;2022-08-21T00:24:08;26.60;66.40
36424;DHT22;22458;45.328;9.514;2022-08-21T00:26:34;26.60;66.30
36424;DHT22;22458;45.328;9.514;2022-08-21T00:29:00;26.60;66.30
36424;DHT22;22458;45.328;9.514;2022-08-21T00:31:26;26.60;66.30
36424;DHT22;22458;45.328;9.514;2022-08-21T00:33:51;26.60;66.40
36424;DHT22;22458;45.328;9.514;2022-08-21T00:36:17;26.40;66.60
36424;DHT22;22458;45.328;9.514;2022-08-21T00:38:43;26.30;67.00
36424;DHT22;22458;45.328;9.514;2022-08-21T00:41:11;26.40;67.20
36424;DHT22;22458;45.328;9.514;2022-08-21T00:43:38;26.30;67.40
36424;DHT22;22458;45.328;9.514;2022-08-21T00:46:05;26.30;67.60
36424;DHT22;22458;45.328;9.514;2022-08-21T00:48:31;26.20;67.70
36424;DHT22;22458;45.328;9.514;2022-08-21T00:51:10;26.20;67.90
36424;DHT22;22458;45.328;9.514;2022-08-21T00:53:39;26.20;68.10
36424;DHT22;22458;45.328;9.514;2022-08-21T00:56:07;26.20;68.20
36424;DHT22;22458;45.328;9.514;2022-08-21T00:58:34;26.10;68.20
36424;DHT22;22458;45.328;9.514;2022-08-21T01:01:03;26.10;68.30
36424;DHT22;22458;45.328;9.514;2022-08-21T01:03:30;26.00;68.40
36424;DHT22;22458;45.328;9.514;2022-08-21T01:05:56;26.00;68.50
36424;DHT22;22458;45.328;9.514;2022-08-21T01:08:22;26.00;68.60
36424;DHT22;22458;45.328;9.514;2022-08-21T01:10:49;26.00;68.80
36424;DHT22;22458;45.328;9.514;2022-08-21T01:13:17;26.00;68.90
36424;DHT22;22458;45.328;9.514;2022-08-21T01:15:46;26.00;68.90
36424;DHT22;22458;45.328;9.514;2022-08-21T01:18:12;26.00;68.80
36424;DHT22;22458;45.328;9.514;2022-08-21T01:23:11;25.90;69.00
36424;DHT22;22458;45.328;9.514;2022-08-21T01:25:38;25.80;69.30
36424;DHT22;22458;45.328;9.514;2022-08-21T01:28:13;25.80;69.50
36424;DHT22;22458;45.328;9.514;2022-08-21T01:30:40;25.90;69.70
36424;DHT22;22458;45.328;9.514;2022-08-21T01:33:07;25.80;69.70
36424;DHT22;22458;45.328;9.514;2022-08-21T01:35:33;25.80;69.80
36424;DHT22;22458;45.328;9.514;2022-08-21T01:37:59;25.80;70.00
36424;DHT22;22458;45.328;9.514;2022-08-21T01:40:25;25.80;70.00
36424;DHT22;22458;45.328;9.514;2022-08-21T01:42:51;25.80;70.10
36424;DHT22;22458;45.328;9.514;2022-08-21T01:45:16;25.70;70.30
36424;DHT22;22458;45.328;9.514;2022-08-21T01:47:44;25.80;70.50
36424;DHT22;22458;45.328;9.514;2022-08-21T01:50:12;25.70;70.40
36424;DHT22;22458;45.328;9.514;2022-08-21T01:52:38;25.70;70.40
36424;DHT22;22458;45.328;9.514;2022-08-21T01:55:05;25.70;70.50
36424;DHT22;22458;45.328;9.514;2022-08-21T01:57:32;25.70;70.70
36424;DHT22;22458;45.328;9.514;2022-08-21T01:59:58;25.60;70.90
36424;DHT22;22458;45.328;9.514;2022-08-21T02:02:24;25.50;71.10
36424;DHT22;22458;45.328;9.514;2022-08-21T02:04:50;25.50;71.20
36424;DHT22;22458;45.328;9.514;2022-08-21T02:07:16;25.40;71.30
36424;DHT22;22458;45.328;9.514;2022-08-21T02:09:42;25.50;71.50
36424;DHT22;22458;45.328;9.514;2022-08-21T02:12:09;25.40;71.60
36424;DHT22;22458;45.328;9.514;2022-08-21T02:14:35;25.40;71.60
36424;DHT22;22458;45.328;9.514;2022-08-21T02:17:01;25.40;71.50
36424;DHT22;22458;45.328;9.514;2022-08-21T02:19:27;25.40;71.60
36424;DHT22;22458;45.328;9.514;2022-08-21T02:21:53;25.30;71.60
36424;DHT22;22458;45.328;9.514;2022-08-21T02:24:19;25.30;72.00
36424;DHT22;22458;45.328;9.514;2022-08-21T02:26:44;25.30;71.80
36424;DHT22;22458;45.328;9.514;2022-08-21T02:29:10;25.20;71.80
36424;DHT22;22458;45.328;9.514;2022-08-21T02:31:36;25.20;72.10
36424;DHT22;22458;45.328;9.514;2022-08-21T02:34:02;25.20;72.30
36424;DHT22;22458;45.328;9.514;2022-08-21T02:36:28;25.10;72.40
36424;DHT22;22458;45.328;9.514;2022-08-21T02:38:54;25.10;72.50
36424;DHT22;22458;45.328;9.514;2022-08-21T02:41:20;25.00;72.70
36424;DHT22;22458;45.328;9.514;2022-08-21T02:43:46;24.70;73.40
36424;DHT22;22458;45.328;9.514;2022-08-21T02:46:15;24.50;73.80
36424;DHT22;22458;45.328;9.514;2022-08-21T02:48:41;24.50;74.00
36424;DHT22;22458;45.328;9.514;2022-08-21T02:51:16;24.50;73.80
36424;DHT22;22458;45.328;9.514;2022-08-21T02:53:44;24.50;74.00
36424;DHT22;22458;45.328;9.514;2022-08-21T02:56:12;24.40;74.30
36424;DHT22;22458;45.328;9.514;2022-08-21T02:58:45;24.20;74.80
36424;DHT22;22458;45.328;9.514;2022-08-21T03:01:12;23.90;75.50
36424;DHT22;22458;45.328;9.514;2022-08-21T03:03:40;23.80;76.10
36424;DHT22;22458;45.328;9.514;2022-08-21T03:06:08;23.60;76.60
36424;DHT22;22458;45.328;9.514;2022-08-21T03:08:35;23.60;76.90
36424;DHT22;22458;45.328;9.514;2022-08-21T03:11:02;23.70;76.80
36424;DHT22;22458;45.328;9.514;2022-08-21T03:13:28;23.80;76.60
36424;DHT22;22458;45.328;9.514;2022-08-21T03:15:54;23.90;76.30
36424;DHT22;22458;45.328;9.514;2022-08-21T03:18:20;24.00;76.20
36424;DHT22;22458;45.328;9.514;2022-08-21T03:20:47;24.10;76.10
36424;DHT22;22458;45.328;9.514;2022-08-21T03:23:15;24.10;76.00
36424;DHT22;22458;45.328;9.514;2022-08-21T03:25:41;24.10;76.00
36424;DHT22;22458;45.328;9.514;2022-08-21T03:28:10;24.00;76.10
36424;DHT22;22458;45.328;9.514;2022-08-21T03:30:36;24.10;76.20
36424;DHT22;22458;45.328;9.514;2022-08-21T03:33:02;24.10;76.20
36424;DHT22;22458;45.328;9.514;2022-08-21T03:35:28;24.10;76.10
36424;DHT22;22458;45.328;9.514;2022-08-21T03:37:54;24.00;76.30
36424;DHT22;22458;45.328;9.514;2022-08-21T03:40:21;23.70;76.80
36424;DHT22;22458;45.328;9.514;2022-08-21T03:42:48;23.60;77.30
36424;DHT22;22458;45.328;9.514;2022-08-21T03:45:15;23.60;77.40
36424;DHT22;22458;45.328;9.514;2022-08-21T03:48:10;23.70;77.30
36424;DHT22;22458;45.328;9.514;2022-08-21T03:50:40;23.80;77.00
36424;DHT22;22458;45.328;9.514;2022-08-21T03:53:07;23.50;77.30
36424;DHT22;22458;45.328;9.514;2022-08-21T03:55:33;23.10;78.30
36424;DHT22;22458;45.328;9.514;2022-08-21T03:57:59;23.00;78.90
36424;DHT22;22458;45.328;9.514;2022-08-21T04:00:25;23.00;79.00
36424;DHT22;22458;45.328;9.514;2022-08-21T04:02:51;23.00;78.80
36424;DHT22;22458;45.328;9.514;2022-08-21T04:05:18;23.20;78.50
36424;DHT22;22458;45.328;9.514;2022-08-21T04:07:57;23.30;78.40
36424;DHT22;22458;45.328;9.514;2022-08-21T04:10:24;23.40;78.30
36424;DHT22;22458;45.328;9.514;2022-08-21T04:12:51;23.50;78.10
36424;DHT22;22458;45.328;9.514;2022-08-21T04:15:17;23.50;78.00
36424;DHT22;22458;45.328;9.514;2022-08-21T04:17:43;23.50;77.70
36424;DHT22;22458;45.328;9.514;2022-08-21T04:20:09;23.60;77.70
36424;DHT22;22458;45.328;9.514;2022-08-21T04:22:35;23.60;77.60
36424;DHT22;22458;45.328;9.514;2022-08-21T04:25:01;23.70;77.50
36424;DHT22;22458;45.328;9.514;2022-08-21T04:27:26;23.70;77.40
36424;DHT22;22458;45.328;9.514;2022-08-21T04:29:52;23.60;77.50
36424;DHT22;22458;45.328;9.514;2022-08-21T04:32:25;23.50;77.80
36424;DHT22;22458;45.328;9.514;2022-08-21T04:34:58;23.50;77.80
36424;DHT22;22458;45.328;9.514;2022-08-21T04:37:24;23.50;77.90
36424;DHT22;22458;45.328;9.514;2022-08-21T04:39:50;23.60;77.90
36424;DHT22;22458;45.328;9.514;2022-08-21T04:42:15;23.60;77.70
36424;DHT22;22458;45.328;9.514;2022-08-21T04:44:41;23.60;77.60
36424;DHT22;22458;45.328;9.514;2022-08-21T04:47:07;23.60;77.50
36424;DHT22;22458;45.328;9.514;2022-08-21T04:49:33;23.70;77.50
36424;DHT22;22458;45.328;9.514;2022-08-21T04:51:59;23.50;77.40
36424;DHT22;22458;45.328;9.514;2022-08-21T04:54:25;23.30;77.90
36424;DHT22;22458;45.328;9.514;2022-08-21T04:56:54;23.20;78.40
36424;DHT22;22458;45.328;9.514;2022-08-21T04:59:39;23.20;78.30
36424;DHT22;22458;45.328;9.514;2022-08-21T05:02:07;23.30;78.20
36424;DHT22;22458;45.328;9.514;2022-08-21T05:04:38;23.40;78.00
36424;DHT22;22458;45.328;9.514;2022-08-21T05:07:07;23.40;77.80
36424;DHT22;22458;45.328;9.514;2022-08-21T05:09:36;23.40;78.00
36424;DHT22;22458;45.328;9.514;2022-08-21T05:12:03;23.20;78.30
36424;DHT22;22458;45.328;9.514;2022-08-21T05:14:29;23.10;79.00
36424;DHT22;22458;45.328;9.514;2022-08-21T05:16:55;23.00;79.10
36424;DHT22;22458;45.328;9.514;2022-08-21T05:19:21;23.20;79.00
36424;DHT22;22458;45.328;9.514;2022-08-21T05:21:47;23.30;78.70
36424;DHT22;22458;45.328;9.514;2022-08-21T05:24:13;23.40;78.60
36424;DHT22;22458;45.328;9.514;2022-08-21T05:26:39;23.40;78.40
36424;DHT22;22458;45.328;9.514;2022-08-21T05:29:06;23.50;78.30
36424;DHT22;22458;45.328;9.514;2022-08-21T05:31:32;23.60;78.20
36424;DHT22;22458;45.328;9.514;2022-08-21T05:33:57;23.70;78.00
36424;DHT22;22458;45.328;9.514;2022-08-21T05:36:23;23.70;78.00
36424;DHT22;22458;45.328;9.514;2022-08-21T05:38:49;23.80;78.10
36424;DHT22;22458;45.328;9.514;2022-08-21T05:41:15;23.80;78.10
36424;DHT22;22458;45.328;9.514;2022-08-21T05:43:41;23.80;78.20
36424;DHT22;22458;45.328;9.514;2022-08-21T05:46:08;23.80;78.40
36424;DHT22;22458;45.328;9.514;2022-08-21T05:48:35;23.80;78.40
36424;DHT22;22458;45.328;9.514;2022-08-21T05:51:07;23.90;78.30
36424;DHT22;22458;45.328;9.514;2022-08-21T05:53:33;23.90;78.20
36424;DHT22;22458;45.328;9.514;2022-08-21T05:55:59;24.00;78.20
36424;DHT22;22458;45.328;9.514;2022-08-21T05:58:25;24.00;77.90
36424;DHT22;22458;45.328;9.514;2022-08-21T06:00:51;24.10;77.80
36424;DHT22;22458;45.328;9.514;2022-08-21T06:03:21;24.00;77.60
36424;DHT22;22458;45.328;9.514;2022-08-21T06:05:47;24.00;77.50
36424;DHT22;22458;45.328;9.514;2022-08-21T06:08:14;23.90;77.70
36424;DHT22;22458;45.328;9.514;2022-08-21T06:10:44;24.00;77.80
36424;DHT22;22458;45.328;9.514;2022-08-21T06:13:17;24.00;77.50
36424;DHT22;22458;45.328;9.514;2022-08-21T06:15:43;24.10;77.00
36424;DHT22;22458;45.328;9.514;2022-08-21T06:18:09;24.20;76.70
36424;DHT22;22458;45.328;9.514;2022-08-21T06:20:35;24.10;76.40
36424;DHT22;22458;45.328;9.514;2022-08-21T06:23:01;24.20;76.20
36424;DHT22;22458;45.328;9.514;2022-08-21T06:25:28;24.20;76.10
36424;DHT22;22458;45.328;9.514;2022-08-21T06:28:01;24.30;75.70
36424;DHT22;22458;45.328;9.514;2022-08-21T06:30:27;24.40;75.40
36424;DHT22;22458;45.328;9.514;2022-08-21T06:32:52;24.40;75.20
36424;DHT22;22458;45.328;9.514;2022-08-21T06:35:18;24.50;75.10
36424;DHT22;22458;45.328;9.514;2022-08-21T06:37:44;24.50;75.00
36424;DHT22;22458;45.328;9.514;2022-08-21T06:40:10;24.50;75.20
36424;DHT22;22458;45.328;9.514;2022-08-21T06:42:36;24.60;75.30
36424;DHT22;22458;45.328;9.514;2022-08-21T06:45:02;24.70;75.30
36424;DHT22;22458;45.328;9.514;2022-08-21T06:47:27;24.70;75.30
36424;DHT22;22458;45.328;9.514;2022-08-21T06:49:53;24.80;75.30
36424;DHT22;22458;45.328;9.514;2022-08-21T06:52:19;24.90;75.10
36424;DHT22;22458;45.328;9.514;2022-08-21T06:54:45;25.00;74.80
36424;DHT22;22458;45.328;9.514;2022-08-21T06:57:11;25.00;74.30
36424;DHT22;22458;45.328;9.514;2022-08-21T06:59:36;25.10;74.10
36424;DHT22;22458;45.328;9.514;2022-08-21T07:02:02;25.30;73.90
36424;DHT22;22458;45.328;9.514;2022-08-21T07:04:28;25.30;73.80
36424;DHT22;22458;45.328;9.514;2022-08-21T07:06:56;25.30;73.60
36424;DHT22;22458;45.328;9.514;2022-08-21T07:09:22;25.30;73.30
36424;DHT22;22458;45.328;9.514;2022-08-21T07:11:50;25.30;73.10
36424;DHT22;22458;45.328;9.514;2022-08-21T07:14:17;25.40;72.80
36424;DHT22;22458;45.328;9.514;2022-08-21T07:16:43;25.40;72.60
36424;DHT22;22458;45.328;9.514;2022-08-21T07:19:09;25.60;72.40
36424;DHT22;22458;45.328;9.514;2022-08-21T07:21:34;25.60;72.10
36424;DHT22;22458;45.328;9.514;2022-08-21T07:24:00;25.80;72.10
36424;DHT22;22458;45.328;9.514;2022-08-21T07:26:26;25.90;71.90
36424;DHT22;22458;45.328;9.514;2022-08-21T07:28:52;26.00;71.60
36424;DHT22;22458;45.328;9.514;2022-08-21T07:31:20;26.10;70.90
36424;DHT22;22458;45.328;9.514;2022-08-21T07:33:47;26.20;70.40
36424;DHT22;22458;45.328;9.514;2022-08-21T07:36:13;26.30;70.30
36424;DHT22;22458;45.328;9.514;2022-08-21T07:38:39;26.30;70.00
36424;DHT22;22458;45.328;9.514;2022-08-21T07:41:34;26.50;69.80
36424;DHT22;22458;45.328;9.514;2022-08-21T07:44:00;26.60;69.20
36424;DHT22;22458;45.328;9.514;2022-08-21T07:46:27;26.70;69.20
36424;DHT22;22458;45.328;9.514;2022-08-21T07:48:53;26.80;69.10
36424;DHT22;22458;45.328;9.514;2022-08-21T07:51:22;26.90;68.50
36424;DHT22;22458;45.328;9.514;2022-08-21T07:53:50;27.00;68.00
36424;DHT22;22458;45.328;9.514;2022-08-21T07:56:16;27.00;67.50
36424;DHT22;22458;45.328;9.514;2022-08-21T07:58:42;27.10;66.80
36424;DHT22;22458;45.328;9.514;2022-08-21T08:01:07;27.20;66.20
36424;DHT22;22458;45.328;9.514;2022-08-21T08:03:33;27.30;65.90
36424;DHT22;22458;45.328;9.514;2022-08-21T08:05:59;27.40;65.80
36424;DHT22;22458;45.328;9.514;2022-08-21T08:08:25;27.50;65.50
36424;DHT22;22458;45.328;9.514;2022-08-21T08:10:53;27.60;65.30
36424;DHT22;22458;45.328;9.514;2022-08-21T08:13:19;27.70;65.10
36424;DHT22;22458;45.328;9.514;2022-08-21T08:15:44;27.70;65.00
36424;DHT22;22458;45.328;9.514;2022-08-21T08:18:10;27.80;65.00
36424;DHT22;22458;45.328;9.514;2022-08-21T08:20:36;27.90;64.90
36424;DHT22;22458;45.328;9.514;2022-08-21T08:23:02;28.00;64.80
36424;DHT22;22458;45.328;9.514;2022-08-21T08:25:28;28.10;64.60
36424;DHT22;22458;45.328;9.514;2022-08-21T08:27:53;28.20;64.60
36424;DHT22;22458;45.328;9.514;2022-08-21T08:30:20;28.20;64.30
36424;DHT22;22458;45.328;9.514;2022-08-21T08:32:47;28.20;64.50
36424;DHT22;22458;45.328;9.514;2022-08-21T08:35:13;28.30;64.20
36424;DHT22;22458;45.328;9.514;2022-08-21T08:37:40;28.30;64.00
36424;DHT22;22458;45.328;9.514;2022-08-21T08:40:28;28.50;63.80
36424;DHT22;22458;45.328;9.514;2022-08-21T08:42:57;28.60;63.20
36424;DHT22;22458;45.328;9.514;2022-08-21T08:45:23;28.60;63.00
36424;DHT22;22458;45.328;9.514;2022-08-21T08:48:03;28.60;62.40
36424;DHT22;22458;45.328;9.514;2022-08-21T08:50:45;28.70;61.90
36424;DHT22;22458;45.328;9.514;2022-08-21T08:53:19;28.80;61.40
36424;DHT22;22458;45.328;9.514;2022-08-21T08:55:48;28.90;61.30
36424;DHT22;22458;45.328;9.514;2022-08-21T08:58:26;28.90;60.40
36424;DHT22;22458;45.328;9.514;2022-08-21T09:00:54;29.00;59.90
36424;DHT22;22458;45.328;9.514;2022-08-21T09:03:23;29.00;59.80
36424;DHT22;22458;45.328;9.514;2022-08-21T09:08:50;29.30;59.10
36424;DHT22;22458;45.328;9.514;2022-08-21T09:24:56;30.00;58.40
36424;DHT22;22458;45.328;9.514;2022-08-21T09:27:26;30.10;58.10
36424;DHT22;22458;45.328;9.514;2022-08-21T09:29:53;30.20;57.80
36424;DHT22;22458;45.328;9.514;2022-08-21T09:32:23;30.20;57.50
36424;DHT22;22458;45.328;9.514;2022-08-21T09:37:21;30.20;57.60
36424;DHT22;22458;45.328;9.514;2022-08-21T09:39:47;30.30;57.70
36424;DHT22;22458;45.328;9.514;2022-08-21T09:42:23;30.40;57.40
36424;DHT22;22458;45.328;9.514;2022-08-21T09:45:06;30.60;57.10
36424;DHT22;22458;45.328;9.514;2022-08-21T09:47:31;30.70;56.80
36424;DHT22;22458;45.328;9.514;2022-08-21T09:50:14;30.70;56.80
36424;DHT22;22458;45.328;9.514;2022-08-21T09:52:54;30.90;56.30
36424;DHT22;22458;45.328;9.514;2022-08-21T09:58:33;31.10;55.60
36424;DHT22;22458;45.328;9.514;2022-08-21T10:01:01;31.10;55.90
36424;DHT22;22458;45.328;9.514;2022-08-21T10:03:28;31.10;55.70
36424;DHT22;22458;45.328;9.514;2022-08-21T10:06:00;31.10;55.60
36424;DHT22;22458;45.328;9.514;2022-08-21T10:08:32;31.10;55.10
36424;DHT22;22458;45.328;9.514;2022-08-21T10:11:06;30.90;55.30
36424;DHT22;22458;45.328;9.514;2022-08-21T10:19:48;31.40;54.60
36424;DHT22;22458;45.328;9.514;2022-08-21T10:25:32;31.60;54.30
36424;DHT22;22458;45.328;9.514;2022-08-21T10:28:27;31.60;54.30
36424;DHT22;22458;45.328;9.514;2022-08-21T10:31:02;31.70;54.10
36424;DHT22;22458;45.328;9.514;2022-08-21T10:34:19;31.70;53.80
36424;DHT22;22458;45.328;9.514;2022-08-21T10:37:07;31.80;53.40
36424;DHT22;22458;45.328;9.514;2022-08-21T10:39:48;31.90;53.60
36424;DHT22;22458;45.328;9.514;2022-08-21T10:42:21;31.90;53.30
36424;DHT22;22458;45.328;9.514;2022-08-21T10:45:10;31.90;53.40
36424;DHT22;22458;45.328;9.514;2022-08-21T10:47:49;31.90;53.00
36424;DHT22;22458;45.328;9.514;2022-08-21T10:50:31;32.00;53.30
36424;DHT22;22458;45.328;9.514;2022-08-21T10:58:12;32.40;53.20
36424;DHT22;22458;45.328;9.514;2022-08-21T11:00:49;32.60;52.30
36424;DHT22;22458;45.328;9.514;2022-08-21T11:03:50;32.60;52.00
36424;DHT22;22458;45.328;9.514;2022-08-21T11:06:24;32.70;51.90
36424;DHT22;22458;45.328;9.514;2022-08-21T11:09:04;32.80;52.30
36424;DHT22;22458;45.328;9.514;2022-08-21T11:11:38;32.90;52.50
36424;DHT22;22458;45.328;9.514;2022-08-21T11:17:07;33.10;51.10
36424;DHT22;22458;45.328;9.514;2022-08-21T11:25:35;33.70;50.60
36424;DHT22;22458;45.328;9.514;2022-08-21T11:27:59;34.20;50.00
36424;DHT22;22458;45.328;9.514;2022-08-21T11:38:45;34.90;49.00
36424;DHT22;22458;45.328;9.514;2022-08-21T11:41:29;35.00;48.50
36424;DHT22;22458;45.328;9.514;2022-08-21T11:50:06;34.90;48.20
36424;DHT22;22458;45.328;9.514;2022-08-21T11:59:12;35.10;47.90
36424;DHT22;22458;45.328;9.514;2022-08-21T12:01:34;35.20;47.40
36424;DHT22;22458;45.328;9.514;2022-08-21T12:04:09;35.20;47.20
36424;DHT22;22458;45.328;9.514;2022-08-21T12:06:40;35.10;46.90
36424;DHT22;22458;45.328;9.514;2022-08-21T12:09:31;34.80;46.30
36424;DHT22;22458;45.328;9.514;2022-08-21T12:15:02;34.60;47.00
36424;DHT22;22458;45.328;9.514;2022-08-21T12:17:37;34.60;47.00
36424;DHT22;22458;45.328;9.514;2022-08-21T12:23:17;34.90;46.60
36424;DHT22;22458;45.328;9.514;2022-08-21T12:25:44;35.00;46.40
36424;DHT22;22458;45.328;9.514;2022-08-21T12:28:14;35.00;46.50
36424;DHT22;22458;45.328;9.514;2022-08-21T12:30:44;35.00;46.40
36424;DHT22;22458;45.328;9.514;2022-08-21T12:33:30;35.10;46.40
36424;DHT22;22458;45.328;9.514;2022-08-21T12:36:16;35.10;46.10
36424;DHT22;22458;45.328;9.514;2022-08-21T12:41:51;35.20;45.70
36424;DHT22;22458;45.328;9.514;2022-08-21T12:44:22;35.20;46.00
36424;DHT22;22458;45.328;9.514;2022-08-21T12:50:11;35.40;44.60
36424;DHT22;22458;45.328;9.514;2022-08-21T12:52:45;35.70;44.40
36424;DHT22;22458;45.328;9.514;2022-08-21T12:55:15;36.10;43.90
36424;DHT22;22458;45.328;9.514;2022-08-21T12:57:50;36.50;43.40
36424;DHT22;22458;45.328;9.514;2022-08-21T13:00:22;36.70;42.90
36424;DHT22;22458;45.328;9.514;2022-08-21T13:02:49;36.80;42.30
36424;DHT22;22458;45.328;9.514;2022-08-21T13:05:27;36.70;42.70
36424;DHT22;22458;45.328;9.514;2022-08-21T13:07:53;36.40;42.30
36424;DHT22;22458;45.328;9.514;2022-08-21T13:12:58;36.00;43.00
36424;DHT22;22458;45.328;9.514;2022-08-21T13:15:31;35.80;43.10
36424;DHT22;22458;45.328;9.514;2022-08-21T13:17:57;35.70;43.20
36424;DHT22;22458;45.328;9.514;2022-08-21T13:20:33;35.70;43.30
36424;DHT22;22458;45.328;9.514;2022-08-21T13:23:18;35.70;43.20
36424;DHT22;22458;45.328;9.514;2022-08-21T13:25:44;35.70;43.20
36424;DHT22;22458;45.328;9.514;2022-08-21T13:28:12;35.70;43.10
36424;DHT22;22458;45.328;9.514;2022-08-21T13:30:49;35.80;43.00
36424;DHT22;22458;45.328;9.514;2022-08-21T13:33:17;36.00;42.40
36424;DHT22;22458;45.328;9.514;2022-08-21T13:38:28;36.10;41.80
36424;DHT22;22458;45.328;9.514;2022-08-21T13:40:58;36.10;41.80
36424;DHT22;22458;45.328;9.514;2022-08-21T13:43:31;36.00;41.10
36424;DHT22;22458;45.328;9.514;2022-08-21T13:45:58;35.90;40.60
36424;DHT22;22458;45.328;9.514;2022-08-21T13:48:28;35.80;40.70
36424;DHT22;22458;45.328;9.514;2022-08-21T13:50:55;35.70;40.80
36424;DHT22;22458;45.328;9.514;2022-08-21T13:53:43;35.70;41.00
36424;DHT22;22458;45.328;9.514;2022-08-21T13:56:25;35.80;41.00
36424;DHT22;22458;45.328;9.514;2022-08-21T13:58:52;35.70;41.10
36424;DHT22;22458;45.328;9.514;2022-08-21T14:01:30;35.70;40.90
36424;DHT22;22458;45.328;9.514;2022-08-21T14:03:59;35.70;40.90
36424;DHT22;22458;45.328;9.514;2022-08-21T14:06:32;35.80;41.40
36424;DHT22;22458;45.328;9.514;2022-08-21T14:09:00;36.00;41.70
36424;DHT22;22458;45.328;9.514;2022-08-21T14:11:28;36.30;41.40
36424;DHT22;22458;45.328;9.514;2022-08-21T14:14:02;36.70;41.10
36424;DHT22;22458;45.328;9.514;2022-08-21T14:16:43;37.00;40.20
36424;DHT22;22458;45.328;9.514;2022-08-21T14:19:17;36.90;39.90
36424;DHT22;22458;45.328;9.514;2022-08-21T14:21:45;36.80;40.10
36424;DHT22;22458;45.328;9.514;2022-08-21T14:24:14;36.80;40.40
36424;DHT22;22458;45.328;9.514;2022-08-21T14:26:56;37.10;40.20
36424;DHT22;22458;45.328;9.514;2022-08-21T14:29:28;37.20;39.70
36424;DHT22;22458;45.328;9.514;2022-08-21T14:31:59;37.20;39.90
36424;DHT22;22458;45.328;9.514;2022-08-21T14:34:27;37.10;40.10
36424;DHT22;22458;45.328;9.514;2022-08-21T14:36:55;37.00;39.70
36424;DHT22;22458;45.328;9.514;2022-08-21T14:39:21;36.90;39.60
36424;DHT22;22458;45.328;9.514;2022-08-21T14:41:47;36.70;40.10
36424;DHT22;22458;45.328;9.514;2022-08-21T14:44:15;36.60;40.60
36424;DHT22;22458;45.328;9.514;2022-08-21T14:46:41;36.50;40.80
36424;DHT22;22458;45.328;9.514;2022-08-21T14:49:07;36.50;40.90
36424;DHT22;22458;45.328;9.514;2022-08-21T14:51:33;36.30;40.70
36424;DHT22;22458;45.328;9.514;2022-08-21T14:53:59;36.30;41.00
36424;DHT22;22458;45.328;9.514;2022-08-21T14:56:24;36.40;40.90
36424;DHT22;22458;45.328;9.514;2022-08-21T14:58:51;36.40;40.80
36424;DHT22;22458;45.328;9.514;2022-08-21T15:01:20;36.50;40.60
36424;DHT22;22458;45.328;9.514;2022-08-21T15:03:46;36.70;40.40
36424;DHT22;22458;45.328;9.514;2022-08-21T15:06:14;36.80;40.30
36424;DHT22;22458;45.328;9.514;2022-08-21T15:08:40;36.80;40.30
36424;DHT22;22458;45.328;9.514;2022-08-21T15:11:06;36.80;40.00
36424;DHT22;22458;45.328;9.514;2022-08-21T15:13:34;36.70;40.00
36424;DHT22;22458;45.328;9.514;2022-08-21T15:16:01;36.70;39.80
36424;DHT22;22458;45.328;9.514;2022-08-21T15:18:28;36.60;39.90
36424;DHT22;22458;45.328;9.514;2022-08-21T15:20:55;36.50;40.90
36424;DHT22;22458;45.328;9.514;2022-08-21T15:23:21;36.70;40.30
36424;DHT22;22458;45.328;9.514;2022-08-21T15:25:48;37.00;40.20
36424;DHT22;22458;45.328;9.514;2022-08-21T15:28:15;37.30;39.40
36424;DHT22;22458;45.328;9.514;2022-08-21T15:30:43;37.50;39.10
36424;DHT22;22458;45.328;9.514;2022-08-21T15:33:11;37.50;38.60
36424;DHT22;22458;45.328;9.514;2022-08-21T15:35:37;37.30;38.60
36424;DHT22;22458;45.328;9.514;2022-08-21T15:38:04;37.00;38.60
36424;DHT22;22458;45.328;9.514;2022-08-21T15:40:30;36.70;38.20
36424;DHT22;22458;45.328;9.514;2022-08-21T15:42:59;36.40;38.40
36424;DHT22;22458;45.328;9.514;2022-08-21T15:45:26;36.10;38.20
36424;DHT22;22458;45.328;9.514;2022-08-21T15:47:52;36.00;38.10
36424;DHT22;22458;45.328;9.514;2022-08-21T15:50:18;36.00;38.10
36424;DHT22;22458;45.328;9.514;2022-08-21T15:52:44;36.00;37.90
36424;DHT22;22458;45.328;9.514;2022-08-21T15:55:11;36.00;37.70
36424;DHT22;22458;45.328;9.514;2022-08-21T15:57:38;35.90;37.80
36424;DHT22;22458;45.328;9.514;2022-08-21T16:00:15;35.70;37.90
36424;DHT22;22458;45.328;9.514;2022-08-21T16:02:44;35.70;38.20
36424;DHT22;22458;45.328;9.514;2022-08-21T16:05:11;35.60;38.20
36424;DHT22;22458;45.328;9.514;2022-08-21T16:07:38;35.50;38.00
36424;DHT22;22458;45.328;9.514;2022-08-21T16:10:05;35.50;38.70
36424;DHT22;22458;45.328;9.514;2022-08-21T16:12:35;35.50;38.90
36424;DHT22;22458;45.328;9.514;2022-08-21T16:15:05;35.40;39.00
36424;DHT22;22458;45.328;9.514;2022-08-21T16:17:34;35.40;39.00
36424;DHT22;22458;45.328;9.514;2022-08-21T16:20:01;35.50;38.80
36424;DHT22;22458;45.328;9.514;2022-08-21T16:22:27;35.50;39.00
36424;DHT22;22458;45.328;9.514;2022-08-21T16:24:53;35.40;39.00
36424;DHT22;22458;45.328;9.514;2022-08-21T16:27:19;35.30;39.20
36424;DHT22;22458;45.328;9.514;2022-08-21T16:29:46;35.30;39.20
36424;DHT22;22458;45.328;9.514;2022-08-21T16:32:12;35.20;39.10
36424;DHT22;22458;45.328;9.514;2022-08-21T16:34:43;35.20;39.30
36424;DHT22;22458;45.328;9.514;2022-08-21T16:37:09;35.20;39.20
36424;DHT22;22458;45.328;9.514;2022-08-21T16:39:35;35.20;39.50
36424;DHT22;22458;45.328;9.514;2022-08-21T16:42:01;35.30;39.20
36424;DHT22;22458;45.328;9.514;2022-08-21T16:44:27;35.30;39.20
36424;DHT22;22458;45.328;9.514;2022-08-21T16:46:53;35.30;38.90
36424;DHT22;22458;45.328;9.514;2022-08-21T16:49:19;35.40;38.60
36424;DHT22;22458;45.328;9.514;2022-08-21T16:51:45;35.40;38.90
36424;DHT22;22458;45.328;9.514;2022-08-21T16:54:11;35.30;39.10
36424;DHT22;22458;45.328;9.514;2022-08-21T16:56:38;35.40;38.90
36424;DHT22;22458;45.328;9.514;2022-08-21T16:59:04;35.30;38.90
36424;DHT22;22458;45.328;9.514;2022-08-21T17:01:32;35.30;39.50
36424;DHT22;22458;45.328;9.514;2022-08-21T17:03:58;35.30;39.80
36424;DHT22;22458;45.328;9.514;2022-08-21T17:06:24;35.30;40.00
36424;DHT22;22458;45.328;9.514;2022-08-21T17:08:50;35.30;40.20